sensor_id;sensor_type;location;lat;lon;timestamp;P1;durP1;ratioP1;P2;durP2;ratioP2
14013;SDS011;49110;52.584;13.408;2023-06-22T00:00:23;9.43;;;8.63;;
14013;SDS011;49110;52.584;13.408;2023-06-22T00:01:24;9.13;;;8.23;;
14013;SDS011;49110;52.584;13.408;2023-06-22T00:02:25;9.77;;;8.87;;
14013;SDS011;49110;52.584;13.408;2023-06-22T00:03:26;9.57;;;8.67;;
14013;SDS011;49110;52.584;13.408;2023-06-22T00:04:26;10.10;;;9.20;;
14013;SDS011;49110;52.584;13.408;2023-06-22T00:05:27;10.00;;;9.03;;
14013;SDS011;49110;52.584;13.408;2023-06-22T00:06:27;9.70;;;8.87;;
14013;SDS011;49110;52.584;13.408;2023-06-22T00:07:28;8.90;;;8.10;;
14013;SDS011;49110;52.584;13.408;2023-06-22T00:08:28;9.57;;;8.77;;
14013;SDS011;49110;52.584;13.408;2023-06-22T00:09:29;9.53;;;8.63;;
14013;SDS011;49110;52.584;13.408;2023-06-22T00:10:31;9.33;;;8.53;;
14013;SDS011;49110;52.584;13.408;2023-06-22T00:11:31;9.87;;;9.00;;
14013;SDS011;49110;52.584;13.408;2023-06-22T00:12:33;9.70;;;8.77;;
14013;SDS011;49110;52.584;13.408;2023-06-22T00:13:33;9.03;;;8.20;;
14013;SDS011;49110;52.584;13.408;2023-06-22T00:14:34;8.90;;;8.10;;
14013;SDS011;49110;52.584;13.408;2023-06-22T00:15:34;9.80;;;8.90;;
14013;SDS011;49110;52.584;13.408;2023-06-22T00:16:36;9.93;;;9.03;;
14013;SDS011;49110;52.584;13.408;2023-06-22T00:17:37;9.03;;;8.23;;
14013;SDS011;49110;52.584;13.408;2023-06-22T00:18:37;9.00;;;8.20;;
14013;SDS011;49110;52.584;13.408;2023-06-22T00:19:37;9.30;;;8.40;;
14013;SDS011;49110;52.584;13.408;2023-06-22T00:20:41;9.47;;;8.57;;
14013;SDS011;49110;52.584;13.408;2023-06-22T00:21:42;9.10;;;8.33;;
14013;SDS011;49110;52.584;13.408;2023-06-22T00:22:43;9.43;;;8.53;;
14013;SDS011;49110;52.584;13.408;2023-06-22T00:23:44;10.90;;;8.53;;
14013;SDS011;49110;52.584;13.408;2023-06-22T00:24:44;8.40;;;7.70;;
14013;SDS011;49110;52.584;13.408;2023-06-22T00:25:45;8.83;;;8.13;;
14013;SDS011;49110;52.584;13.408;2023-06-22T00:26:45;9.47;;;8.57;;
14013;SDS011;49110;52.584;13.408;2023-06-22T00:27:47;8.83;;;8.03;;
14013;SDS011;49110;52.584;13.408;2023-06-22T00:28:48;9.30;;;8.50;;
14013;SDS011;49110;52.584;13.408;2023-06-22T00:29:49;8.40;;;7.70;;
14013;SDS011;49110;52.584;13.408;2023-06-22T00:30:49;9.20;;;8.40;;
14013;SDS011;49110;52.584;13.408;2023-06-22T00:31:50;17.53;;;8.00;;
14013;SDS011;49110;52.584;13.408;2023-06-22T00:32:51;8.50;;;7.77;;
14013;SDS011;49110;52.584;13.408;2023-06-22T00:33:51;9.43;;;8.43;;
14013;SDS011;49110;52.584;13.408;2023-06-22T00:34:51;9.53;;;8.73;;
14013;SDS011;49110;52.584;13.408;2023-06-22T00:35:52;9.20;;;8.40;;
14013;SDS011;49110;52.584;13.408;2023-06-22T00:36:53;8.87;;;8.10;;
14013;SDS011;49110;52.584;13.408;2023-06-22T00:37:54;9.63;;;8.57;;
14013;SDS011;49110;52.584;13.408;2023-06-22T00:39:00;8.70;;;7.90;;
14013;SDS011;49110;52.584;13.408;2023-06-22T00:40:01;8.70;;;8.00;;
14013;SDS011;49110;52.584;13.408;2023-06-22T00:41:03;9.07;;;8.27;;
14013;SDS011;49110;52.584;13.408;2023-06-22T00:42:03;9.37;;;8.57;;
14013;SDS011;49110;52.584;13.408;2023-06-22T00:43:05;8.80;;;8.00;;
14013;SDS011;49110;52.584;13.408;2023-06-22T00:44:06;9.00;;;8.20;;
14013;SDS011;49110;52.584;13.408;2023-06-22T00:45:07;9.87;;;8.97;;
14013;SDS011;49110;52.584;13.408;2023-06-22T00:46:08;9.17;;;8.33;;
14013;SDS011;49110;52.584;13.408;2023-06-22T00:47:08;8.77;;;7.93;;
14013;SDS011;49110;52.584;13.408;2023-06-22T00:48:09;9.97;;;8.20;;
14013;SDS011;49110;52.584;13.408;2023-06-22T00:49:09;8.80;;;8.00;;
14013;SDS011;49110;52.584;13.408;2023-06-22T00:50:10;8.77;;;8.07;;
14013;SDS011;49110;52.584;13.408;2023-06-22T00:51:18;8.60;;;7.87;;
14013;SDS011;49110;52.584;13.408;2023-06-22T00:52:24;9.33;;;8.53;;
14013;SDS011;49110;52.584;13.408;2023-06-22T00:53:29;9.17;;;8.27;;
14013;SDS011;49110;52.584;13.408;2023-06-22T00:54:30;8.70;;;7.90;;
14013;SDS011;49110;52.584;13.408;2023-06-22T00:55:30;8.93;;;8.10;;
14013;SDS011;49110;52.584;13.408;2023-06-22T00:56:31;9.50;;;8.70;;
14013;SDS011;49110;52.584;13.408;2023-06-22T00:57:32;11.07;;;8.13;;
14013;SDS011;49110;52.584;13.408;2023-06-22T00:58:32;8.77;;;7.93;;
14013;SDS011;49110;52.584;13.408;2023-06-22T00:59:33;9.10;;;8.30;;
14013;SDS011;49110;52.584;13.408;2023-06-22T01:00:34;8.20;;;7.50;;
14013;SDS011;49110;52.584;13.408;2023-06-22T01:01:34;9.73;;;8.80;;
14013;SDS011;49110;52.584;13.408;2023-06-22T01:02:41;9.63;;;8.83;;
14013;SDS011;49110;52.584;13.408;2023-06-22T01:03:41;8.97;;;8.27;;
14013;SDS011;49110;52.584;13.408;2023-06-22T01:04:42;9.30;;;8.50;;
14013;SDS011;49110;52.584;13.408;2023-06-22T01:05:42;8.40;;;7.60;;
14013;SDS011;49110;52.584;13.408;2023-06-22T01:06:58;9.77;;;8.87;;
14013;SDS011;49110;52.584;13.408;2023-06-22T01:08:22;8.50;;;7.80;;
14013;SDS011;49110;52.584;13.408;2023-06-22T01:09:31;9.80;;;8.60;;
14013;SDS011;49110;52.584;13.408;2023-06-22T01:10:45;9.10;;;8.20;;
14013;SDS011;49110;52.584;13.408;2023-06-22T01:11:57;9.80;;;8.90;;
14013;SDS011;49110;52.584;13.408;2023-06-22T01:13:02;8.33;;;7.70;;
14013;SDS011;49110;52.584;13.408;2023-06-22T01:14:10;8.50;;;7.80;;
14013;SDS011;49110;52.584;13.408;2023-06-22T01:15:18;9.23;;;8.17;;
14013;SDS011;49110;52.584;13.408;2023-06-22T01:16:31;8.77;;;7.97;;
14013;SDS011;49110;52.584;13.408;2023-06-22T01:17:34;9.20;;;8.30;;
14013;SDS011;49110;52.584;13.408;2023-06-22T01:18:36;8.27;;;7.57;;
14013;SDS011;49110;52.584;13.408;2023-06-22T01:19:51;9.17;;;8.37;;
14013;SDS011;49110;52.584;13.408;2023-06-22T01:20:56;8.83;;;8.13;;
14013;SDS011;49110;52.584;13.408;2023-06-22T01:21:58;8.87;;;8.07;;
14013;SDS011;49110;52.584;13.408;2023-06-22T01:24:57;8.70;;;7.90;;
14013;SDS011;49110;52.584;13.408;2023-06-22T01:26:19;9.20;;;8.40;;
14013;SDS011;49110;52.584;13.408;2023-06-22T01:27:40;9.10;;;8.30;;
14013;SDS011;49110;52.584;13.408;2023-06-22T01:29:01;9.80;;;8.90;;
14013;SDS011;49110;52.584;13.408;2023-06-22T01:30:04;9.60;;;8.70;;
14013;SDS011;49110;52.584;13.408;2023-06-22T01:31:06;8.37;;;7.60;;
14013;SDS011;49110;52.584;13.408;2023-06-22T01:32:08;9.53;;;8.20;;
14013;SDS011;49110;52.584;13.408;2023-06-22T01:33:11;9.37;;;8.30;;
14013;SDS011;49110;52.584;13.408;2023-06-22T01:34:12;8.47;;;7.77;;
14013;SDS011;49110;52.584;13.408;2023-06-22T01:35:14;8.53;;;7.77;;
14013;SDS011;49110;52.584;13.408;2023-06-22T01:36:15;8.90;;;8.10;;
14013;SDS011;49110;52.584;13.408;2023-06-22T01:37:17;9.03;;;8.23;;
14013;SDS011;49110;52.584;13.408;2023-06-22T01:38:17;9.23;;;8.30;;
14013;SDS011;49110;52.584;13.408;2023-06-22T01:39:18;9.50;;;8.60;;
14013;SDS011;49110;52.584;13.408;2023-06-22T01:40:19;9.77;;;8.37;;
14013;SDS011;49110;52.584;13.408;2023-06-22T01:41:21;8.97;;;8.17;;
14013;SDS011;49110;52.584;13.408;2023-06-22T01:42:23;9.30;;;8.40;;
14013;SDS011;49110;52.584;13.408;2023-06-22T01:43:27;8.83;;;8.13;;
14013;SDS011;49110;52.584;13.408;2023-06-22T01:44:29;10.03;;;9.03;;
14013;SDS011;49110;52.584;13.408;2023-06-22T01:45:29;8.90;;;8.10;;
14013;SDS011;49110;52.584;13.408;2023-06-22T01:46:30;8.90;;;8.00;;
14013;SDS011;49110;52.584;13.408;2023-06-22T01:47:31;8.13;;;7.50;;
14013;SDS011;49110;52.584;13.408;2023-06-22T01:48:32;8.83;;;8.03;;
14013;SDS011;49110;52.584;13.408;2023-06-22T01:49:33;8.97;;;8.07;;
14013;SDS011;49110;52.584;13.408;2023-06-22T01:50:33;9.10;;;8.20;;
14013;SDS011;49110;52.584;13.408;2023-06-22T01:51:34;9.03;;;8.27;;
14013;SDS011;49110;52.584;13.408;2023-06-22T01:52:34;9.10;;;8.30;;
14013;SDS011;49110;52.584;13.408;2023-06-22T01:53:35;9.03;;;8.23;;
14013;SDS011;49110;52.584;13.408;2023-06-22T01:54:36;8.40;;;7.80;;
14013;SDS011;49110;52.584;13.408;2023-06-22T01:55:37;9.30;;;8.47;;
14013;SDS011;49110;52.584;13.408;2023-06-22T01:56:38;9.07;;;8.27;;
14013;SDS011;49110;52.584;13.408;2023-06-22T01:57:39;10.90;;;8.37;;
14013;SDS011;49110;52.584;13.408;2023-06-22T01:58:41;8.77;;;7.97;;
14013;SDS011;49110;52.584;13.408;2023-06-22T01:59:49;8.83;;;8.07;;
14013;SDS011;49110;52.584;13.408;2023-06-22T02:01:09;9.70;;;8.60;;
14013;SDS011;49110;52.584;13.408;2023-06-22T02:02:11;9.20;;;8.37;;
14013;SDS011;49110;52.584;13.408;2023-06-22T02:03:17;8.80;;;8.00;;
14013;SDS011;49110;52.584;13.408;2023-06-22T02:04:24;8.93;;;8.03;;
14013;SDS011;49110;52.584;13.408;2023-06-22T02:05:28;8.47;;;7.67;;
14013;SDS011;49110;52.584;13.408;2023-06-22T02:06:36;8.87;;;8.17;;
14013;SDS011;49110;52.584;13.408;2023-06-22T02:07:39;9.47;;;8.57;;
14013;SDS011;49110;52.584;13.408;2023-06-22T02:08:48;10.07;;;8.73;;
14013;SDS011;49110;52.584;13.408;2023-06-22T02:09:54;9.20;;;8.40;;
14013;SDS011;49110;52.584;13.408;2023-06-22T02:10:56;14.53;;;8.53;;
14013;SDS011;49110;52.584;13.408;2023-06-22T02:11:59;9.27;;;8.37;;
14013;SDS011;49110;52.584;13.408;2023-06-22T02:13:04;9.40;;;8.60;;
14013;SDS011;49110;52.584;13.408;2023-06-22T02:14:06;9.53;;;8.60;;
14013;SDS011;49110;52.584;13.408;2023-06-22T02:15:08;9.97;;;8.20;;
14013;SDS011;49110;52.584;13.408;2023-06-22T02:16:10;9.93;;;9.00;;
14013;SDS011;49110;52.584;13.408;2023-06-22T02:17:12;8.87;;;8.03;;
14013;SDS011;49110;52.584;13.408;2023-06-22T02:18:13;9.40;;;8.60;;
14013;SDS011;49110;52.584;13.408;2023-06-22T02:19:14;9.60;;;8.77;;
14013;SDS011;49110;52.584;13.408;2023-06-22T02:20:15;9.27;;;8.37;;
14013;SDS011;49110;52.584;13.408;2023-06-22T02:21:16;10.03;;;9.03;;
14013;SDS011;49110;52.584;13.408;2023-06-22T02:22:17;8.97;;;8.23;;
14013;SDS011;49110;52.584;13.408;2023-06-22T02:23:18;10.47;;;9.57;;
14013;SDS011;49110;52.584;13.408;2023-06-22T02:24:18;13.03;;;8.50;;
14013;SDS011;49110;52.584;13.408;2023-06-22T02:25:19;9.97;;;9.17;;
14013;SDS011;49110;52.584;13.408;2023-06-22T02:26:20;10.87;;;9.30;;
14013;SDS011;49110;52.584;13.408;2023-06-22T02:27:20;10.47;;;9.30;;
14013;SDS011;49110;52.584;13.408;2023-06-22T02:28:21;9.73;;;8.83;;
14013;SDS011;49110;52.584;13.408;2023-06-22T02:29:21;10.30;;;9.33;;
14013;SDS011;49110;52.584;13.408;2023-06-22T02:30:21;9.70;;;8.80;;
14013;SDS011;49110;52.584;13.408;2023-06-22T02:31:22;10.07;;;9.07;;
14013;SDS011;49110;52.584;13.408;2023-06-22T02:32:22;10.03;;;9.13;;
14013;SDS011;49110;52.584;13.408;2023-06-22T02:33:23;9.40;;;8.60;;
14013;SDS011;49110;52.584;13.408;2023-06-22T02:34:23;10.03;;;9.13;;
14013;SDS011;49110;52.584;13.408;2023-06-22T02:35:25;10.40;;;9.43;;
14013;SDS011;49110;52.584;13.408;2023-06-22T02:36:26;9.93;;;9.03;;
14013;SDS011;49110;52.584;13.408;2023-06-22T02:37:30;9.93;;;9.13;;
14013;SDS011;49110;52.584;13.408;2023-06-22T02:38:31;10.20;;;9.30;;
14013;SDS011;49110;52.584;13.408;2023-06-22T02:39:33;11.40;;;9.40;;
14013;SDS011;49110;52.584;13.408;2023-06-22T02:40:33;9.50;;;8.70;;
14013;SDS011;49110;52.584;13.408;2023-06-22T02:41:34;10.23;;;9.03;;
14013;SDS011;49110;52.584;13.408;2023-06-22T02:42:35;9.57;;;8.67;;
14013;SDS011;49110;52.584;13.408;2023-06-22T02:43:35;9.63;;;8.83;;
14013;SDS011;49110;52.584;13.408;2023-06-22T02:44:36;9.77;;;8.83;;
14013;SDS011;49110;52.584;13.408;2023-06-22T02:45:37;9.87;;;8.87;;
14013;SDS011;49110;52.584;13.408;2023-06-22T02:46:37;10.57;;;9.67;;
14013;SDS011;49110;52.584;13.408;2023-06-22T02:47:38;10.80;;;9.77;;
14013;SDS011;49110;52.584;13.408;2023-06-22T02:48:39;11.13;;;10.10;;
14013;SDS011;49110;52.584;13.408;2023-06-22T02:49:40;10.40;;;9.47;;
14013;SDS011;49110;52.584;13.408;2023-06-22T02:50:41;10.80;;;9.70;;
14013;SDS011;49110;52.584;13.408;2023-06-22T02:51:44;10.33;;;9.43;;
14013;SDS011;49110;52.584;13.408;2023-06-22T02:52:45;10.30;;;9.30;;
14013;SDS011;49110;52.584;13.408;2023-06-22T02:53:46;10.60;;;9.60;;
14013;SDS011;49110;52.584;13.408;2023-06-22T02:54:47;9.57;;;8.77;;
14013;SDS011;49110;52.584;13.408;2023-06-22T02:55:47;10.83;;;9.80;;
14013;SDS011;49110;52.584;13.408;2023-06-22T02:56:48;11.10;;;10.00;;
14013;SDS011;49110;52.584;13.408;2023-06-22T02:57:48;10.37;;;9.37;;
14013;SDS011;49110;52.584;13.408;2023-06-22T02:58:52;11.03;;;9.60;;
14013;SDS011;49110;52.584;13.408;2023-06-22T02:59:52;10.80;;;9.80;;
14013;SDS011;49110;52.584;13.408;2023-06-22T03:00:53;11.83;;;10.77;;
14013;SDS011;49110;52.584;13.408;2023-06-22T03:01:53;11.60;;;10.60;;
14013;SDS011;49110;52.584;13.408;2023-06-22T03:02:54;11.60;;;10.50;;
14013;SDS011;49110;52.584;13.408;2023-06-22T03:03:54;11.43;;;10.33;;
14013;SDS011;49110;52.584;13.408;2023-06-22T03:04:55;11.47;;;10.40;;
14013;SDS011;49110;52.584;13.408;2023-06-22T03:05:55;11.43;;;10.33;;
14013;SDS011;49110;52.584;13.408;2023-06-22T03:06:56;11.87;;;10.70;;
14013;SDS011;49110;52.584;13.408;2023-06-22T03:07:56;11.83;;;10.73;;
14013;SDS011;49110;52.584;13.408;2023-06-22T03:08:59;11.43;;;10.23;;
14013;SDS011;49110;52.584;13.408;2023-06-22T03:10:01;12.40;;;11.10;;
14013;SDS011;49110;52.584;13.408;2023-06-22T03:11:01;12.10;;;11.00;;
14013;SDS011;49110;52.584;13.408;2023-06-22T03:12:02;12.40;;;11.20;;
14013;SDS011;49110;52.584;13.408;2023-06-22T03:13:02;12.00;;;11.00;;
14013;SDS011;49110;52.584;13.408;2023-06-22T03:14:03;12.00;;;11.00;;
14013;SDS011;49110;52.584;13.408;2023-06-22T03:15:06;12.33;;;11.13;;
14013;SDS011;49110;52.584;13.408;2023-06-22T03:16:08;12.13;;;10.87;;
14013;SDS011;49110;52.584;13.408;2023-06-22T03:17:09;12.07;;;10.87;;
14013;SDS011;49110;52.584;13.408;2023-06-22T03:18:10;12.60;;;11.37;;
14013;SDS011;49110;52.584;13.408;2023-06-22T03:19:11;13.00;;;11.90;;
14013;SDS011;49110;52.584;13.408;2023-06-22T03:20:11;12.20;;;11.10;;
14013;SDS011;49110;52.584;13.408;2023-06-22T03:21:12;12.97;;;11.67;;
14013;SDS011;49110;52.584;13.408;2023-06-22T03:22:12;12.83;;;11.73;;
14013;SDS011;49110;52.584;13.408;2023-06-22T03:23:15;14.50;;;12.17;;
14013;SDS011;49110;52.584;13.408;2023-06-22T03:24:15;12.93;;;11.80;;
14013;SDS011;49110;52.584;13.408;2023-06-22T03:25:15;13.97;;;11.50;;
14013;SDS011;49110;52.584;13.408;2023-06-22T03:26:16;12.97;;;11.67;;
14013;SDS011;49110;52.584;13.408;2023-06-22T03:27:18;11.87;;;10.87;;
14013;SDS011;49110;52.584;13.408;2023-06-22T03:28:18;13.17;;;11.53;;
14013;SDS011;49110;52.584;13.408;2023-06-22T03:29:18;12.47;;;11.27;;
14013;SDS011;49110;52.584;13.408;2023-06-22T03:30:19;12.93;;;11.63;;
14013;SDS011;49110;52.584;13.408;2023-06-22T03:31:19;14.33;;;12.93;;
14013;SDS011;49110;52.584;13.408;2023-06-22T03:32:21;12.70;;;11.60;;
14013;SDS011;49110;52.584;13.408;2023-06-22T03:33:21;13.23;;;11.83;;
14013;SDS011;49110;52.584;13.408;2023-06-22T03:34:22;13.73;;;12.33;;
14013;SDS011;49110;52.584;13.408;2023-06-22T03:35:22;12.80;;;11.43;;
14013;SDS011;49110;52.584;13.408;2023-06-22T03:36:23;13.23;;;11.93;;
14013;SDS011;49110;52.584;13.408;2023-06-22T03:37:24;13.27;;;11.97;;
14013;SDS011;49110;52.584;13.408;2023-06-22T03:38:25;13.60;;;12.30;;
14013;SDS011;49110;52.584;13.408;2023-06-22T03:39:26;13.87;;;12.47;;
14013;SDS011;49110;52.584;13.408;2023-06-22T03:40:26;13.10;;;11.73;;
14013;SDS011;49110;52.584;13.408;2023-06-22T03:41:26;18.30;;;13.07;;
14013;SDS011;49110;52.584;13.408;2023-06-22T03:42:27;12.80;;;11.70;;
14013;SDS011;49110;52.584;13.408;2023-06-22T03:43:27;13.67;;;12.30;;
14013;SDS011;49110;52.584;13.408;2023-06-22T03:44:28;13.00;;;11.67;;
14013;SDS011;49110;52.584;13.408;2023-06-22T03:45:28;13.80;;;12.13;;
14013;SDS011;49110;52.584;13.408;2023-06-22T03:46:29;13.90;;;12.40;;
14013;SDS011;49110;52.584;13.408;2023-06-22T03:47:29;13.30;;;12.00;;
14013;SDS011;49110;52.584;13.408;2023-06-22T03:48:30;15.67;;;12.03;;
14013;SDS011;49110;52.584;13.408;2023-06-22T03:49:30;13.60;;;12.30;;
14013;SDS011;49110;52.584;13.408;2023-06-22T03:50:31;13.40;;;12.07;;
14013;SDS011;49110;52.584;13.408;2023-06-22T03:51:32;13.87;;;12.60;;
14013;SDS011;49110;52.584;13.408;2023-06-22T03:52:32;13.00;;;11.53;;
14013;SDS011;49110;52.584;13.408;2023-06-22T03:53:33;18.43;;;12.63;;
14013;SDS011;49110;52.584;13.408;2023-06-22T03:54:33;14.17;;;12.03;;
14013;SDS011;49110;52.584;13.408;2023-06-22T03:55:34;13.77;;;12.50;;
14013;SDS011;49110;52.584;13.408;2023-06-22T03:56:35;14.47;;;11.93;;
14013;SDS011;49110;52.584;13.408;2023-06-22T03:57:36;13.47;;;12.17;;
14013;SDS011;49110;52.584;13.408;2023-06-22T03:58:36;14.37;;;12.07;;
14013;SDS011;49110;52.584;13.408;2023-06-22T03:59:42;13.73;;;12.37;;
14013;SDS011;49110;52.584;13.408;2023-06-22T04:00:43;14.40;;;12.80;;
14013;SDS011;49110;52.584;13.408;2023-06-22T04:01:43;14.67;;;13.17;;
14013;SDS011;49110;52.584;13.408;2023-06-22T04:02:44;13.93;;;12.60;;
14013;SDS011;49110;52.584;13.408;2023-06-22T04:03:45;13.80;;;12.40;;
14013;SDS011;49110;52.584;13.408;2023-06-22T04:04:48;13.27;;;12.00;;
14013;SDS011;49110;52.584;13.408;2023-06-22T04:05:48;13.63;;;11.87;;
14013;SDS011;49110;52.584;13.408;2023-06-22T04:06:48;12.70;;;11.40;;
14013;SDS011;49110;52.584;13.408;2023-06-22T04:07:49;14.53;;;12.27;;
14013;SDS011;49110;52.584;13.408;2023-06-22T04:08:49;13.93;;;12.37;;
14013;SDS011;49110;52.584;13.408;2023-06-22T04:09:50;12.93;;;11.60;;
14013;SDS011;49110;52.584;13.408;2023-06-22T04:10:51;13.80;;;12.40;;
14013;SDS011;49110;52.584;13.408;2023-06-22T04:11:51;13.23;;;11.77;;
14013;SDS011;49110;52.584;13.408;2023-06-22T04:12:52;13.97;;;11.00;;
14013;SDS011;49110;52.584;13.408;2023-06-22T04:13:52;13.33;;;11.40;;
14013;SDS011;49110;52.584;13.408;2023-06-22T04:14:53;12.37;;;11.07;;
14013;SDS011;49110;52.584;13.408;2023-06-22T04:15:54;11.37;;;10.30;;
14013;SDS011;49110;52.584;13.408;2023-06-22T04:16:54;12.00;;;10.33;;
14013;SDS011;49110;52.584;13.408;2023-06-22T04:17:55;12.77;;;10.97;;
14013;SDS011;49110;52.584;13.408;2023-06-22T04:18:56;16.00;;;10.93;;
14013;SDS011;49110;52.584;13.408;2023-06-22T04:19:57;13.53;;;10.67;;
14013;SDS011;49110;52.584;13.408;2023-06-22T04:20:57;11.97;;;10.77;;
14013;SDS011;49110;52.584;13.408;2023-06-22T04:21:58;11.33;;;10.13;;
14013;SDS011;49110;52.584;13.408;2023-06-22T04:22:58;11.40;;;10.20;;
14013;SDS011;49110;52.584;13.408;2023-06-22T04:23:59;12.67;;;10.87;;
14013;SDS011;49110;52.584;13.408;2023-06-22T04:24:59;13.50;;;10.10;;
14013;SDS011;49110;52.584;13.408;2023-06-22T04:25:59;10.30;;;9.43;;
14013;SDS011;49110;52.584;13.408;2023-06-22T04:27:00;11.17;;;10.07;;
14013;SDS011;49110;52.584;13.408;2023-06-22T04:28:02;11.63;;;10.03;;
14013;SDS011;49110;52.584;13.408;2023-06-22T04:29:04;13.50;;;9.60;;
14013;SDS011;49110;52.584;13.408;2023-06-22T04:30:06;10.70;;;9.67;;
14013;SDS011;49110;52.584;13.408;2023-06-22T04:31:07;9.50;;;8.57;;
14013;SDS011;49110;52.584;13.408;2023-06-22T04:32:08;9.93;;;9.03;;
14013;SDS011;49110;52.584;13.408;2023-06-22T04:33:08;10.20;;;9.20;;
14013;SDS011;49110;52.584;13.408;2023-06-22T04:34:09;9.13;;;8.10;;
14013;SDS011;49110;52.584;13.408;2023-06-22T04:35:10;11.37;;;8.63;;
14013;SDS011;49110;52.584;13.408;2023-06-22T04:36:11;9.67;;;8.70;;
14013;SDS011;49110;52.584;13.408;2023-06-22T04:37:13;9.07;;;8.20;;
14013;SDS011;49110;52.584;13.408;2023-06-22T04:38:15;11.53;;;8.83;;
14013;SDS011;49110;52.584;13.408;2023-06-22T04:39:15;8.53;;;7.77;;
14013;SDS011;49110;52.584;13.408;2023-06-22T04:40:16;13.60;;;8.97;;
14013;SDS011;49110;52.584;13.408;2023-06-22T04:41:16;8.93;;;8.13;;
14013;SDS011;49110;52.584;13.408;2023-06-22T04:42:25;9.00;;;8.10;;
14013;SDS011;49110;52.584;13.408;2023-06-22T04:43:26;11.20;;;8.07;;
14013;SDS011;49110;52.584;13.408;2023-06-22T04:44:30;11.80;;;8.30;;
14013;SDS011;49110;52.584;13.408;2023-06-22T04:45:30;9.23;;;8.33;;
14013;SDS011;49110;52.584;13.408;2023-06-22T04:46:31;9.17;;;7.70;;
14013;SDS011;49110;52.584;13.408;2023-06-22T04:47:31;9.53;;;8.40;;
14013;SDS011;49110;52.584;13.408;2023-06-22T04:48:31;8.43;;;7.57;;
14013;SDS011;49110;52.584;13.408;2023-06-22T04:49:32;8.57;;;7.43;;
14013;SDS011;49110;52.584;13.408;2023-06-22T04:50:33;10.57;;;7.90;;
14013;SDS011;49110;52.584;13.408;2023-06-22T04:51:34;8.50;;;7.63;;
14013;SDS011;49110;52.584;13.408;2023-06-22T04:52:34;10.60;;;7.40;;
14013;SDS011;49110;52.584;13.408;2023-06-22T04:53:35;9.43;;;6.83;;
14013;SDS011;49110;52.584;13.408;2023-06-22T04:54:37;9.17;;;7.23;;
14013;SDS011;49110;52.584;13.408;2023-06-22T04:55:39;7.80;;;7.03;;
14013;SDS011;49110;52.584;13.408;2023-06-22T04:56:41;10.50;;;7.30;;
14013;SDS011;49110;52.584;13.408;2023-06-22T04:57:42;8.13;;;7.37;;
14013;SDS011;49110;52.584;13.408;2023-06-22T04:58:44;11.60;;;7.60;;
14013;SDS011;49110;52.584;13.408;2023-06-22T04:59:44;7.53;;;6.70;;
14013;SDS011;49110;52.584;13.408;2023-06-22T05:00:45;8.33;;;7.20;;
14013;SDS011;49110;52.584;13.408;2023-06-22T05:01:45;9.83;;;7.10;;
14013;SDS011;49110;52.584;13.408;2023-06-22T05:02:46;8.20;;;7.07;;
14013;SDS011;49110;52.584;13.408;2023-06-22T05:03:47;7.93;;;7.10;;
14013;SDS011;49110;52.584;13.408;2023-06-22T05:04:47;10.17;;;6.70;;
14013;SDS011;49110;52.584;13.408;2023-06-22T05:05:51;10.57;;;7.07;;
14013;SDS011;49110;52.584;13.408;2023-06-22T05:06:52;9.27;;;6.70;;
14013;SDS011;49110;52.584;13.408;2023-06-22T05:07:53;9.23;;;7.13;;
14013;SDS011;49110;52.584;13.408;2023-06-22T05:08:59;10.63;;;7.50;;
14013;SDS011;49110;52.584;13.408;2023-06-22T05:10:01;10.33;;;7.00;;
14013;SDS011;49110;52.584;13.408;2023-06-22T05:11:02;9.00;;;7.07;;
14013;SDS011;49110;52.584;13.408;2023-06-22T05:12:03;9.57;;;7.00;;
14013;SDS011;49110;52.584;13.408;2023-06-22T05:13:04;7.47;;;6.73;;
14013;SDS011;49110;52.584;13.408;2023-06-22T05:14:05;7.70;;;6.67;;
14013;SDS011;49110;52.584;13.408;2023-06-22T05:15:06;9.83;;;6.80;;
14013;SDS011;49110;52.584;13.408;2023-06-22T05:16:07;7.33;;;6.63;;
14013;SDS011;49110;52.584;13.408;2023-06-22T05:17:08;14.67;;;7.00;;
14013;SDS011;49110;52.584;13.408;2023-06-22T05:18:13;14.37;;;6.70;;
14013;SDS011;49110;52.584;13.408;2023-06-22T05:19:13;7.67;;;6.03;;
14013;SDS011;49110;52.584;13.408;2023-06-22T05:20:14;6.07;;;5.57;;
14013;SDS011;49110;52.584;13.408;2023-06-22T05:21:18;8.03;;;6.87;;
14013;SDS011;49110;52.584;13.408;2023-06-22T05:22:21;7.47;;;6.13;;
14013;SDS011;49110;52.584;13.408;2023-06-22T05:23:22;7.70;;;6.00;;
14013;SDS011;49110;52.584;13.408;2023-06-22T05:24:22;6.17;;;5.57;;
14013;SDS011;49110;52.584;13.408;2023-06-22T05:25:23;6.37;;;5.77;;
14013;SDS011;49110;52.584;13.408;2023-06-22T05:26:23;8.63;;;5.47;;
14013;SDS011;49110;52.584;13.408;2023-06-22T05:27:24;6.30;;;5.70;;
14013;SDS011;49110;52.584;13.408;2023-06-22T05:28:25;7.13;;;5.40;;
14013;SDS011;49110;52.584;13.408;2023-06-22T05:29:25;5.90;;;5.30;;
14013;SDS011;49110;52.584;13.408;2023-06-22T05:30:26;5.90;;;5.30;;
14013;SDS011;49110;52.584;13.408;2023-06-22T05:31:27;7.77;;;5.57;;
14013;SDS011;49110;52.584;13.408;2023-06-22T05:32:28;7.67;;;5.13;;
14013;SDS011;49110;52.584;13.408;2023-06-22T05:33:28;6.27;;;4.97;;
14013;SDS011;49110;52.584;13.408;2023-06-22T05:34:29;5.10;;;4.57;;
14013;SDS011;49110;52.584;13.408;2023-06-22T05:35:29;7.13;;;4.70;;
14013;SDS011;49110;52.584;13.408;2023-06-22T05:36:30;5.00;;;4.60;;
14013;SDS011;49110;52.584;13.408;2023-06-22T05:37:30;5.70;;;4.77;;
14013;SDS011;49110;52.584;13.408;2023-06-22T05:38:30;7.27;;;4.70;;
14013;SDS011;49110;52.584;13.408;2023-06-22T05:39:31;4.60;;;4.10;;
14013;SDS011;49110;52.584;13.408;2023-06-22T05:40:32;4.67;;;4.20;;
14013;SDS011;49110;52.584;13.408;2023-06-22T05:41:32;4.73;;;4.17;;
14013;SDS011;49110;52.584;13.408;2023-06-22T05:42:32;6.50;;;4.70;;
14013;SDS011;49110;52.584;13.408;2023-06-22T05:43:33;5.43;;;4.67;;
14013;SDS011;49110;52.584;13.408;2023-06-22T05:44:34;4.97;;;3.83;;
14013;SDS011;49110;52.584;13.408;2023-06-22T05:45:34;5.00;;;4.37;;
14013;SDS011;49110;52.584;13.408;2023-06-22T05:46:35;5.93;;;4.00;;
14013;SDS011;49110;52.584;13.408;2023-06-22T05:47:35;4.20;;;3.80;;
14013;SDS011;49110;52.584;13.408;2023-06-22T05:48:35;9.47;;;3.50;;
14013;SDS011;49110;52.584;13.408;2023-06-22T05:49:36;4.10;;;3.70;;
14013;SDS011;49110;52.584;13.408;2023-06-22T05:50:36;7.80;;;3.93;;
14013;SDS011;49110;52.584;13.408;2023-06-22T05:51:37;4.37;;;3.90;;
14013;SDS011;49110;52.584;13.408;2023-06-22T05:52:38;8.00;;;3.60;;
14013;SDS011;49110;52.584;13.408;2023-06-22T05:53:38;4.50;;;3.40;;
14013;SDS011;49110;52.584;13.408;2023-06-22T05:54:38;5.53;;;3.47;;
14013;SDS011;49110;52.584;13.408;2023-06-22T05:55:41;4.37;;;3.53;;
14013;SDS011;49110;52.584;13.408;2023-06-22T05:56:42;4.90;;;3.70;;
14013;SDS011;49110;52.584;13.408;2023-06-22T05:57:42;3.53;;;3.23;;
14013;SDS011;49110;52.584;13.408;2023-06-22T05:58:43;4.27;;;3.70;;
14013;SDS011;49110;52.584;13.408;2023-06-22T05:59:43;4.43;;;3.47;;
14013;SDS011;49110;52.584;13.408;2023-06-22T06:00:44;3.80;;;3.50;;
14013;SDS011;49110;52.584;13.408;2023-06-22T06:01:44;4.80;;;4.30;;
14013;SDS011;49110;52.584;13.408;2023-06-22T06:02:49;3.93;;;3.23;;
14013;SDS011;49110;52.584;13.408;2023-06-22T06:03:50;3.50;;;3.20;;
14013;SDS011;49110;52.584;13.408;2023-06-22T06:04:52;4.50;;;3.83;;